Agana Heights, GU (96910)

2:06 PM ChST on July 25, 2016 (GMT +1000)
Maite | | Change Station

Elev 140 ft 13.48 °N, 144.76 °E | Updated 5 seconds ago

Partly Cloudy
Partly Cloudy
89.7 °F
Feels Like 103 °F
N
8.0
Wind Variable Wind from ESE
Gusts 14.0 mph

Today
High -- | Low -- °F
--% Chance of Precip.
Yesterday
High -- | Low -- °F
Precip. -- in
Pressure 29.78 in
Visibility 10.0 miles
Clouds Few 2700 ft
Heat Index 103 °F
Dew Point 77 °F
Humidity 67%
Rainfall 0.00 in
Snow Depth Not available.
6:04 AM 6:50 PM
Waning Gibbous, 70% visible
METAR PGUM 250354Z 11008KT 10SM FEW027 32/24 A2981 RMK AO2 SLP085 T03170244
Pressure 29.78 in
Visibility 10.0 miles
Clouds Few 2700 ft
Heat Index 103 °F
Dew Point 77 °F
Humidity 67%
Rainfall 0.00 in
Snow Depth Not available.
6:04 AM 6:50 PM
Waning Gibbous, 70% visible
METAR PGUM 250354Z 11008KT 10SM FEW027 32/24 A2981 RMK AO2 SLP085 T03170244

10-Day Weather Forecast

Almanac

Astronomy

Jul. 25, 2016 Rise Set
Actual Time
Civil Twilight
Nautical Twilight
Astronomical Twilight
Moon
Length of Visible Light
Length of Day
Tomorrow will be .
, % of the Moon is Illuminated

Today's Extremes

State Highs State Lows

Community

WunderPhotos

Upload Photos

1,927,264 photos uploaded!

WunderBlog® & News

Nearby

Air Quality

  Air Quality AQ Index Pollutant
Not available.

Snow Depth

Station Depth Elevation

Earthquake Activity

City Distance Mag. Time & Date
Minimum magnitude displayed is 2.5.

Coastal Water Temperatures

Place Temperature

Stations

Nearby Weather Stations

Station Location Temp. Windchill Dew Point Humidity Wind Precip. Elev Updated Type
                   

Watches & Warnings

There are currently no watches in effect.